DAUG/GHA METAR and TAF weather

Enter ICAO airport designator
Station Type Date Time Source
DAUG METAR 2022/07/01 01:00 UTC NOAA

DAUG 010100Z VRB01KT CAVOK 32/// Q1012


Station Type Date Time Source
DAUG Decoded METAR 2022/07/01 01:00 UTC NOAA

Ghardaia, Algeria (DAUG) 32-23N 003-49E 450M
Jun 30, 2022 - 09:00 PM EDT / 2022.07.01 0100 UTC
Wind: Variable at 1 MPH (1 KT):0
Visibility: greater than 7 mile(s):0
Temperature: 89 F (32 C)
Pressure (altimeter): 29.88 in. Hg (1012 hPa)
ob: DAUG 010100Z VRB01KT CAVOK 32/// Q1012
cycle: 1

Station Type Date Time Source
DAUG TAF 2022/06/30 18:34 UTC NOAA

TAF DAUG 301700Z 3018/0118 16010KT 7000 FEW046 PROB30
TEMPO 3018/3021 16022KT 3000 DRSA

Example: see airport list